Flight Track Log - Related Links

Times and Time Zones

All times are in EDT time to prevent confusion due to time zone crossing. See the SWA34 flight status page for this flight to view local times or setup timezone preferences in your user account.

Time Position Orientation Groundspeed Altitude Reporting Facility
EDT Latitude Longitude Course Direction KTS MPH feet Rate Location/Type
Wed 12:54:45 PM 33.6536 -84.4981 234° Southwest 419 482 3,300  Level Atlanta Center
Wed 12:55:45 PM 33.6678 -84.5806 282° West 296 341 6,400 3,100 Climbing Atlanta Center
Wed 12:56:45 PM 33.6819 -84.6678 281° West 278 320 9,500 2,300 Climbing Atlanta Center
Wed 12:57:45 PM 33.6939 -84.7653 278° West 278 320 11,000 2,000 Climbing Atlanta Center
Wed 12:58:45 PM 33.6536 -84.8747 246° West 340 391 13,500 2,400 Climbing Atlanta Center
Wed 12:59:45 PM 33.6156 -84.9692 244° Southwest 351 404 15,800 2,300 Climbing Atlanta Center
Wed 01:00:00 PM 33.7634 -84.6325 234° Southwest  Level FlightAware Approximate
Wed 01:00:45 PM 33.5686 -85.0808 243° Southwest 370 426 18,100  Level Atlanta Center
Wed 01:01:45 PM 33.5217 -85.1975 244° Southwest 383 441 20,300 1,950 Climbing Atlanta Center
Wed 01:02:45 PM 33.4953 -85.3217 256° West 383 441 22,000 1,750 Climbing Atlanta Center
Wed 01:03:45 PM 33.4753 -85.4533 260° West 395 455 23,800 1,650 Climbing Atlanta Center
Wed 01:04:45 PM 33.4547 -85.5875 260° West 413 475 25,300 1,400 Climbing Atlanta Center
Wed 01:05:45 PM 33.4297 -85.7414 259° West 413 475 26,600 1,600 Climbing Atlanta Center
Wed 01:06:45 PM 33.4092 -85.8703 259° West 421 484 28,500 1,900 Climbing Atlanta Center
Wed 01:07:45 PM 33.3861 -86.0067 259° West 421 484 30,400 1,750 Climbing Atlanta Center
Wed 01:08:45 PM 33.3650 -86.1431 260° West 421 484 32,000 1,350 Climbing Atlanta Center
Wed 01:09:45 PM 33.3461 -86.2694 260° West 410 472 33,100 1,050 Climbing Atlanta Center
Wed 01:10:45 PM 33.3228 -86.4031 258° West 404 465 34,100 1,050 Climbing Atlanta Center
Wed 01:11:45 PM 33.2911 -86.5264 253° West 404 465 35,200 950 Climbing Atlanta Center
Wed 01:12:45 PM 33.2450 -86.6444 245° Southwest 404 465 36,000 400 Climbing Atlanta Center
Wed 01:13:45 PM 33.1983 -86.7647 245° Southwest 404 465 36,000  Level Atlanta Center
Wed 01:14:45 PM 33.1497 -86.8872 245° Southwest 404 465 36,000  Level Atlanta Center
Wed 01:15:45 PM 33.1053 -87.0022 245° Southwest 404 465 36,000  Level Atlanta Center
Wed 01:16:45 PM 33.0567 -87.1097 242° Southwest 399 459 36,000  Level Atlanta Center
Wed 01:17:45 PM 33.0075 -87.2467 247° West 408 470 36,000  Level Atlanta Center
Wed 01:18:45 PM 32.9625 -87.3686 246° West 408 470 36,000  Level Atlanta Center
Wed 01:20:33 PM 32.8764 -87.5697 243° Southwest 424 488 36,000  Level Memphis Center
Wed 01:21:33 PM 32.8292 -87.6922 245° Southwest 418 481 36,000  Level Memphis Center
Wed 01:22:33 PM 32.7817 -87.8147 245° Southwest 418 481 36,000  Level Memphis Center
Wed 01:23:32 PM 32.7381 -87.9344 247° West 407 468 36,000  Level Memphis Center
Wed 01:24:32 PM 32.6967 -88.0589 248° West 402 463 36,000  Level Memphis Center
Wed 01:25:32 PM 32.6592 -88.1833 250° West 402 463 36,000  Level Memphis Center
Wed 01:26:32 PM 32.6217 -88.3050 250° West 402 463 36,000  Level Memphis Center
Wed 01:27:32 PM 32.5839 -88.4267 250° West 402 463 36,000  Level Memphis Center
Wed 01:28:32 PM 32.5419 -88.5658 250° West 402 463 36,000  Level Memphis Center
Wed 01:29:32 PM 32.5061 -88.6847 250° West 402 463 36,000  Level Memphis Center
Wed 01:30:32 PM 32.4681 -88.8086 250° West 397 457 36,000  Level Memphis Center
Wed 01:31:32 PM 32.4300 -88.9297 250° West 397 457 36,000  Level Memphis Center
Wed 01:32:32 PM 32.3917 -89.0508 249° West 392 451 36,000  Level Memphis Center
Wed 01:33:32 PM 32.3531 -89.1719 249° West 392 451 36,000  Level Memphis Center
Wed 01:34:32 PM 32.3167 -89.2953 251° West 392 451 36,000  Level Memphis Center
Wed 01:35:32 PM 32.2781 -89.4186 250° West 392 451 36,000  Level Memphis Center
Wed 01:36:32 PM 32.2369 -89.5394 248° West 392 451 36,000  Level Memphis Center
Wed 01:37:32 PM 32.2003 -89.6600 250° West 392 451 36,000  Level Memphis Center
Wed 01:38:32 PM 32.1611 -89.7856 250° West 392 451 36,000  Level Memphis Center
Wed 01:39:32 PM 32.1200 -89.9061 248° West 398 458 36,000  Level Memphis Center
Wed 01:40:32 PM 32.0828 -90.0264 250° West 398 458 36,000  Level Memphis Center
Wed 01:41:32 PM 32.0433 -90.1492 249° West 398 458 36,000  Level Memphis Center
Wed 01:42:32 PM 32.0039 -90.2692 249° West 398 458 36,000  Level Memphis Center
Wed 01:43:32 PM 31.9622 -90.3892 248° West 398 458 36,000  Level Memphis Center
Wed 01:45:34 PM 31.8889 -90.6261 250° West 397 457 36,000  Level Houston Center
Wed 01:46:36 PM 31.8489 -90.7481 249° West 401 461 36,000  Level Houston Center
Wed 01:47:38 PM 31.8069 -90.8764 249° West 397 457 36,000  Level Houston Center
Wed 01:48:40 PM 31.7700 -90.9897 249° West 402 463 36,000  Level Houston Center
Wed 01:49:42 PM 31.7244 -91.1206 248° West 403 464 36,000  Level Houston Center
Wed 01:50:45 PM 31.6839 -91.2431 249° West 404 465 36,000  Level Houston Center
Wed 01:51:47 PM 31.6358 -91.3903 249° West 404 465 36,000  Level Houston Center
Wed 01:52:49 PM 31.5936 -91.5119 248° West 405 466 36,000  Level Houston Center
Wed 01:53:51 PM 31.5522 -91.6347 248° West 405 466 36,000  Level Houston Center
Wed 01:54:53 PM 31.5117 -91.7572 249° West 405 466 36,000  Level Houston Center
Wed 01:55:55 PM 31.4694 -91.8800 248° West 405 466 36,000  Level Houston Center
Wed 01:56:57 PM 31.4197 -92.0275 248° West 407 468 36,000  Level Houston Center
Wed 01:57:59 PM 31.3792 -92.1431 248° West 406 467 36,000  Level Houston Center
Wed 01:59:01 PM 31.3378 -92.2644 248° West 405 466 36,000  Level Houston Center
Wed 02:00:04 PM 31.2950 -92.3886 248° West 412 474 36,000  Level Houston Center
Wed 02:01:06 PM 31.2553 -92.5103 249° West 409 471 36,000  Level Houston Center
Wed 02:02:08 PM 31.2000 -92.6536 246° West 408 470 36,000  Level Houston Center
Wed 02:03:10 PM 31.1553 -92.7750 247° West 407 468 36,000  Level Houston Center
Wed 02:04:12 PM 31.1111 -92.8956 247° West 406 467 36,000  Level Houston Center
Wed 02:05:14 PM 31.0661 -93.0172 247° West 408 470 36,000  Level Houston Center
Wed 02:06:17 PM 31.0231 -93.1367 247° West 406 467 36,000  Level Houston Center
Wed 02:07:19 PM 31.0044 -93.2906 262° West 404 465 36,000  Level Houston Center
Wed 02:08:21 PM 30.9878 -93.4172 261° West 401 461 36,000  Level Houston Center
Wed 02:09:23 PM 30.9725 -93.5436 262° West 398 458 36,000  Level Houston Center
Wed 02:10:25 PM 30.9758 -93.6706 272° West 396 456 36,000 -97 Level Houston Center
Wed 02:11:27 PM 30.9789 -93.7978 272° West 395 455 35,800 -1,403 Descending Houston Center
Wed 02:12:29 PM 30.9833 -93.9433 272° West 382 440 33,100 -1,984 Descending Houston Center
Wed 02:13:31 PM 30.9347 -94.0544 243° Southwest 411 473 31,700 -1,488 Descending Houston Center
Wed 02:14:34 PM 30.8464 -94.1436 221° Southwest 420 483 30,000 -2,256 Descending Houston Center
Wed 02:15:36 PM 30.7481 -94.2497 223° Southwest 433 498 27,000 -2,727 Descending Houston Center
Wed 02:16:35 PM 30.6606 -94.3425 222° Southwest 426 490 24,500 -2,477 Descending Houston Center
Wed 02:17:25 PM 30.5903 -94.4172 222° Southwest 412 474 22,500 -2,400 Descending Houston Center
Wed 02:17:40 PM 30.5706 -94.4364 220° Southwest 408 470 21,900 -2,459 Descending Houston Center
Wed 02:18:26 PM 30.5103 -94.5031 224° Southwest 392 451 20,000 -2,419 Descending Houston Center
Wed 02:18:42 PM 30.4953 -94.5253 232° Southwest 392 451 19,400 -2,262 Descending Houston Center
Wed 02:19:27 PM 30.4425 -94.6064 233° Southwest 368 423 17,700 -2,226 Descending Houston Center
Wed 02:19:44 PM 30.4281 -94.6278 232° Southwest 370 426 17,100 -2,226 Descending Houston Center
Wed 02:20:29 PM 30.3819 -94.6967 232° Southwest 360 414 15,400 -2,129 Descending Houston Center
Wed 02:20:46 PM 30.3672 -94.7189 232° Southwest 361 415 14,900 -2,164 Descending Houston Center
Wed 02:21:30 PM 30.3194 -94.7894 232° Southwest 348 400 13,200 -1,905 Descending Houston Center
Wed 02:21:49 PM 30.3089 -94.8069 235° Southwest 348 400 12,900 -1,082 Descending Houston Center
Wed 02:22:31 PM 30.2644 -94.8739 232° Southwest 320 368 12,100 -968 Descending Houston Center
Wed 02:22:51 PM 30.2556 -94.8900 237° Southwest 327 376 11,900 -964 Descending Houston Center
Wed 02:23:27 PM 30.2169 -94.9500 233° Southwest 321 369 11,200 -968 Descending Houston Center
Wed 02:23:53 PM 30.2019 -94.9725 232° Southwest 322 371 10,900 -968 Descending Houston Center
Wed 02:24:29 PM 30.1600 -95.0344 232° Southwest 322 371 10,200 -871 Descending Houston Center
Wed 02:24:55 PM 30.1478 -95.0544 235° Southwest 323 372 10,000 -197 Descending Houston Center
Wed 02:25:30 PM 30.0833 -95.0922 207° Southwest 329 379 10,000  Level Houston Center
Wed 02:25:57 PM 30.0500 -95.1081 202° Southwest 326 375 10,000  Level Houston Center
Wed 02:26:31 PM 29.9986 -95.1292 200° South 323 372 10,000  Level Houston Center
Wed 02:26:59 PM 29.9669 -95.1433 201° Southwest 322 371 10,000  Level Houston Center
Wed 02:27:32 PM 29.9158 -95.1658 201° Southwest 317 365 10,000 -97 Level Houston Center
Wed 02:28:01 PM 29.8850 -95.1792 201° Southwest 317 365 9,900 -321 Descending Houston Center
Wed 02:28:28 PM 29.8453 -95.1961 200° South 291 335 9,700 -677 Descending Houston Center
Wed 02:29:03 PM 29.8100 -95.2103 199° South 295 339 9,200 -985 Descending Houston Center
Wed 02:29:35 PM 29.7583 -95.2333 201° Southwest 280 322 8,600 -1,048 Descending Houston Center
Wed 02:30:06 PM 29.7225 -95.2494 201° Southwest 285 328 8,100 -1,180 Descending Houston Center
Wed 02:30:36 PM 29.6836 -95.2642 198° South 287 330 7,400 -1,355 Descending Houston Center
Wed 02:31:08 PM 29.6539 -95.2872 214° Southwest 285 328 6,700 -1,452 Descending Houston Center
Wed 02:31:38 PM 29.6419 -95.3364 254° West 284 327 5,900 -1,161 Descending Houston Center
Wed 02:32:10 PM 29.6483 -95.3750 281° West 291 335 5,500 -2,400 Descending Houston Center
Wed 02:32:33 PM 29.6533 -95.4167 278° West 273 314 3,700 -3,194 Descending Houston Center
Wed 02:33:12 PM 29.6794 -95.4508 311° West 282 325 2,200 -1,672 Descending Houston Center
Wed 02:33:34 PM 29.7106 -95.4436 11° North 237 273 2,000 -290 Descending Houston Center
Wed 02:34:14 PM 29.7183 -95.4164 72° East 229 264 1,900 -194 Descending Houston Center
Wed 02:34:36 PM 29.7139 -95.3878 100° East 164 189 1,800 -194 Descending Houston Center
Wed 02:35:16 PM 29.7072 -95.3633 107° East 191 220 1,700 -537 Descending Houston Center
Wed 02:35:43 PM 29.6900 -95.3353 125° Southeast 162 186 1,200 -871 Descending Houston Center
Wed 02:36:18 PM 29.6758 -95.3153 129° Southeast 166 191 800 -689 Descending Houston Center
Wed 02:36:44 PM 29.6636 -95.3000 133° Southeast 131 151 500 -571 Descending Houston Center
Wed 02:37:21 PM 29.6461 -95.2794 134° Southeast 154 177 200 -486 Descending Houston Center

Login

Don't have an account? Register now (free) for customized features, flight alerts, and more!